Terminal Aerodrome Forecast
Issued by NWS

Home | Current Version | Previous Version | Text Only | Print | Product List | Glossary Off
Versions: 1 2 3 4 5 6 7 8 9 10 11 12 13 14 15 16

000
FTUS43 KGRB 091300 AAB
TAFAUW
TAF AMD
KAUW 091306Z 0913/1012 30007KT P6SM VCSH SCT015 BKN035
      TEMPO 0913/0915 SCT015 BKN025
     FM091600 30009KT P6SM BKN040
     FM091700 30009G17KT P6SM SCT030 BKN060
     FM100100 VRB03KT P6SM SCT070 SCT100=

USA.gov is the U.S. government's official web portal to all federal, state and local government web resources and services.